Time;durP1;ratioP1;P1;durP2;ratioP2;P2;SDS_P1;SDS_P2;PMS_P1;PMS_P2;Temp;Humidity;BMP_temperature;BMP_pressure;BME280_temperature;BME280_humidity;BME280_pressure;Samples;Min_cycle;Max_cycle;Signal;HPM_P1;HPM_P2
2023/10/23 00:01:39;;;;;;;8.07;4.32;;;8.20;99.90;;;;;;5089979;28;19919;-73
2023/10/23 00:04:08;;;;;;;6.72;4.45;;;7.00;99.90;;;;;;5091373;28;20051;-74
2023/10/23 00:06:34;;;;;;;8.30;5.05;;;6.80;99.90;;;;;;5092009;28;20048;-74
2023/10/23 00:09:00;;;;;;;7.10;4.50;;;6.80;99.90;;;;;;5091713;28;20044;-73
2023/10/23 00:11:27;;;;;;;9.68;5.43;;;6.80;99.90;;;;;;5094722;28;20050;-73
2023/10/23 00:13:53;;;;;;;10.93;4.55;;;6.80;99.90;;;;;;5095431;28;20044;-74
2023/10/23 00:16:19;;;;;;;9.25;5.22;;;6.80;99.90;;;;;;5094870;28;20048;-73
2023/10/23 00:18:45;;;;;;;7.82;5.05;;;6.80;99.90;;;;;;5093203;28;20072;-73
2023/10/23 00:21:10;;;;;;;7.53;4.88;;;6.80;99.90;;;;;;5092597;28;20078;-73
2023/10/23 00:23:36;;;;;;;7.30;4.97;;;6.80;99.90;;;;;;5093951;28;20089;-73
2023/10/23 00:26:05;;;;;;;6.70;4.60;;;6.80;99.90;;;;;;5093690;28;20055;-73
2023/10/23 00:28:32;;;;;;;7.95;5.10;;;6.90;99.90;;;;;;5092844;28;20048;-73
2023/10/23 00:30:58;;;;;;;7.57;4.88;;;6.90;99.90;;;;;;5093772;28;20040;-73
2023/10/23 00:33:24;;;;;;;6.65;4.75;;;6.80;99.90;;;;;;5074218;28;20051;-73
2023/10/23 00:35:49;;;;;;;6.70;4.65;;;6.80;99.90;;;;;;5074522;28;20379;-73
2023/10/23 00:38:15;;;;;;;7.50;5.40;;;6.70;99.90;;;;;;5074875;28;20115;-72
2023/10/23 00:40:41;;;;;;;;;;;6.70;99.90;;;;;;5093928;28;20133;-73
2023/10/23 00:43:17;;;;;;;13.50;5.40;;;7.00;99.90;;;;;;5094823;28;19930;-73
2023/10/23 00:45:59;;;;;;;9.00;5.45;;;6.70;99.90;;;;;;5095068;28;20052;-73
2023/10/23 00:48:26;;;;;;;8.95;5.68;;;6.70;99.90;;;;;;5093646;28;20067;-73
2023/10/23 00:50:57;;;;;;;7.97;5.68;;;6.70;99.90;;;;;;5075622;28;20124;-73
2023/10/23 00:53:25;;;;;;;10.15;5.70;;;6.70;99.90;;;;;;5075711;28;20052;-73
2023/10/23 00:55:53;;;;;;;8.95;5.75;;;7.10;99.90;;;;;;5073701;28;20098;-73
2023/10/23 00:58:19;;;;;;;9.55;5.90;;;6.90;99.90;;;;;;5074493;28;20075;-73
2023/10/23 01:00:47;;;;;;;12.52;5.88;;;6.90;99.90;;;;;;5093953;28;20052;-74
2023/10/23 01:03:13;;;;;;;9.85;5.78;;;6.90;99.90;;;;;;5093668;28;20132;-74
2023/10/23 01:05:38;;;;;;;9.48;5.78;;;7.10;99.90;;;;;;5094776;28;20082;-73
2023/10/23 01:08:04;;;;;;;;;;;7.40;99.90;;;;;;5094939;28;20052;-74
2023/10/23 01:10:30;;;;;;;10.35;5.68;;;7.30;99.90;;;;;;5092760;28;19927;-73
2023/10/23 01:12:57;;;;;;;8.80;6.28;;;6.90;99.90;;;;;;5093791;28;20056;-73
2023/10/23 01:15:26;;;;;;;9.32;6.18;;;6.80;99.90;;;;;;5093918;28;20072;-73
2023/10/23 01:17:52;;;;;;;9.05;6.05;;;6.80;99.90;;;;;;5094104;28;20044;-73
2023/10/23 01:20:18;;;;;;;13.35;5.60;;;6.80;99.90;;;;;;5095009;28;20105;-73
2023/10/23 01:22:44;;;;;;;9.25;6.13;;;6.80;99.90;;;;;;5093226;28;20044;-73
2023/10/23 01:25:14;;;;;;;10.02;6.10;;;6.80;99.90;;;;;;5093794;28;20050;-73
2023/10/23 01:27:40;;;;;;;10.32;6.32;;;6.80;99.90;;;;;;5093967;28;20060;-74
2023/10/23 01:30:08;;;;;;;11.70;5.97;;;6.80;99.90;;;;;;5092652;28;20517;-73
2023/10/23 01:32:34;;;;;;;11.18;5.88;;;6.80;99.90;;;;;;5093969;28;20111;-73
2023/10/23 01:34:59;;;;;;;9.30;5.75;;;6.90;99.90;;;;;;5094291;28;20131;-73
2023/10/23 01:37:28;;;;;;;10.85;6.60;;;6.90;99.90;;;;;;5093257;28;20052;-73
2023/10/23 01:39:54;;;;;;;13.13;6.18;;;7.00;99.90;;;;;;5094800;28;20066;-74
2023/10/23 01:42:20;;;;;;;9.88;6.15;;;7.20;99.90;;;;;;5093886;28;20051;-72
2023/10/23 01:44:45;;;;;;;;;;;7.10;99.90;;;;;;5094653;28;20044;-74
2023/10/23 01:47:11;;;;;;;11.45;6.13;;;7.10;99.90;;;;;;5093371;28;19927;-73
2023/10/23 01:49:37;;;;;;;13.43;6.43;;;7.10;99.90;;;;;;5093655;28;20384;-74
2023/10/23 01:52:02;;;;;;;;;;;7.10;99.90;;;;;;5092729;28;20051;-73
2023/10/23 01:54:28;;;;;;;10.90;6.68;;;7.10;99.90;;;;;;5092943;28;19931;-73
2023/10/23 01:56:53;;;;;;;11.73;6.68;;;7.10;99.90;;;;;;5093308;28;20050;-73
2023/10/23 01:59:19;;;;;;;10.77;7.10;;;7.10;99.90;;;;;;5092974;28;20048;-73
2023/10/23 02:01:45;;;;;;;11.60;6.53;;;7.10;99.90;;;;;;5093258;28;20052;-73
2023/10/23 02:04:10;;;;;;;14.68;7.05;;;7.10;99.90;;;;;;5093139;28;20035;-73
2023/10/23 02:06:36;;;;;;;;;;;7.20;99.90;;;;;;5093135;28;20048;-74
2023/10/23 02:09:02;;;;;;;12.80;6.68;;;7.10;99.90;;;;;;5093208;28;19920;-73
2023/10/23 02:11:28;;;;;;;10.40;6.82;;;7.10;99.90;;;;;;5093400;28;20109;-73
2023/10/23 02:13:54;;;;;;;11.90;7.10;;;7.10;99.90;;;;;;5092732;28;20486;-74
2023/10/23 02:16:19;;;;;;;15.05;7.07;;;7.10;99.90;;;;;;5092800;28;20079;-73
2023/10/23 02:18:45;;;;;;;;;;;7.10;99.90;;;;;;5092856;28;20052;-73
2023/10/23 02:21:11;;;;;;;14.25;7.38;;;7.00;99.90;;;;;;5092602;28;19920;-73
2023/10/23 02:23:36;;;;;;;14.13;7.65;;;7.00;99.90;;;;;;5093231;28;20083;-73
2023/10/23 02:26:02;;;;;;;12.15;7.65;;;7.00;99.90;;;;;;5092045;28;20820;-73
2023/10/23 02:28:28;;;;;;;;;;;7.00;99.90;;;;;;5093362;28;20032;-73
2023/10/23 02:30:54;;;;;;;14.65;7.72;;;7.10;99.90;;;;;;5092256;28;19919;-73
2023/10/23 02:33:20;;;;;;;11.63;7.57;;;7.00;99.90;;;;;;5091665;28;20058;-73
2023/10/23 02:35:46;;;;;;;14.93;7.32;;;7.00;99.90;;;;;;5092907;28;20592;-72
2023/10/23 02:38:11;;;;;;;;;;;6.90;99.90;;;;;;5092949;28;20071;-73
2023/10/23 02:40:37;;;;;;;16.48;8.35;;;6.90;99.90;;;;;;5091939;28;19968;-73
2023/10/23 02:43:03;;;;;;;;;;;6.90;99.90;;;;;;5092696;28;20059;-73
2023/10/23 02:45:28;;;;;;;14.35;8.27;;;6.80;99.90;;;;;;5093475;28;19946;-72
2023/10/23 02:47:54;;;;;;;13.55;8.52;;;6.80;99.90;;;;;;5090932;28;20416;-72
2023/10/23 02:50:21;;;;;;;16.38;8.90;;;6.80;99.90;;;;;;5092506;28;20123;-73
2023/10/23 02:52:47;;;;;;;12.68;8.30;;;6.80;99.90;;;;;;5093246;28;20036;-73
2023/10/23 02:55:12;;;;;;;13.57;8.60;;;6.80;99.90;;;;;;5092582;28;20447;-73
2023/10/23 02:57:38;;;;;;;14.73;8.90;;;6.80;99.90;;;;;;5092271;28;20124;-73
2023/10/23 03:00:05;;;;;;;13.85;8.90;;;6.80;99.90;;;;;;5090962;28;20380;-73
2023/10/23 03:02:33;;;;;;;15.95;9.27;;;6.70;99.90;;;;;;5091609;28;20071;-73
2023/10/23 03:04:58;;;;;;;15.40;10.10;;;6.70;99.90;;;;;;5092230;28;20075;-73
2023/10/23 03:07:24;;;;;;;15.48;9.50;;;6.70;99.90;;;;;;5092446;28;20140;-72
2023/10/23 03:09:50;;;;;;;20.98;9.90;;;6.70;99.90;;;;;;5090845;28;20055;-73
2023/10/23 03:12:16;;;;;;;17.45;10.98;;;6.80;99.90;;;;;;5093259;28;20039;-73
2023/10/23 03:14:42;;;;;;;21.77;11.23;;;7.30;99.90;;;;;;5092008;28;20368;-73
2023/10/23 03:17:07;;;;;;;19.45;11.68;;;6.80;99.90;;;;;;5091034;28;20400;-72
2023/10/23 03:19:33;;;;;;;19.33;11.68;;;7.00;99.90;;;;;;5092154;28;20036;-72
2023/10/23 03:21:58;;;;;;;;;;;6.90;99.90;;;;;;5092639;28;20044;-73
2023/10/23 03:24:25;;;;;;;20.88;10.82;;;7.60;99.90;;;;;;5092609;28;20359;-72
2023/10/23 03:26:50;;;;;;;18.02;11.48;;;7.00;99.90;;;;;;5092683;28;20468;-73
2023/10/23 03:29:17;;;;;;;21.50;11.43;;;7.00;99.90;;;;;;5091084;28;20059;-73
2023/10/23 03:31:43;;;;;;;18.25;11.10;;;7.00;99.90;;;;;;5093273;28;20040;-72
2023/10/23 03:34:08;;;;;;;22.48;11.48;;;7.00;99.90;;;;;;5091247;28;20067;-73
2023/10/23 03:36:34;;;;;;;24.00;11.07;;;7.00;99.90;;;;;;5090620;28;20085;-72
2023/10/23 03:38:59;;;;;;;;;;;7.00;99.90;;;;;;5091726;28;20395;-72
2023/10/23 03:41:25;;;;;;;22.42;11.13;;;6.90;99.90;;;;;;5091609;28;19931;-72
2023/10/23 03:43:51;;;;;;;36.83;11.38;;;6.90;99.90;;;;;;5090591;28;20071;-73
2023/10/23 03:46:17;;;;;;;110.45;15.68;;;6.90;99.90;;;;;;5089376;28;20434;-72
2023/10/23 03:48:42;;;;;;;35.30;11.35;;;7.20;99.90;;;;;;5087022;28;20498;-72
2023/10/23 03:51:08;;;;;;;40.60;11.38;;;6.90;99.90;;;;;;5089412;28;20052;-73
2023/10/23 03:53:34;;;;;;;18.67;10.15;;;6.90;99.90;;;;;;5090977;28;20096;-72
2023/10/23 03:55:59;;;;;;;;;;;6.90;99.90;;;;;;5089413;28;20475;-72
2023/10/23 03:58:25;;;;;;;22.73;10.88;;;6.90;99.90;;;;;;5087068;28;19947;-73
2023/10/23 04:00:52;;;;;;;18.70;10.40;;;6.90;99.90;;;;;;5090290;28;20483;-73
2023/10/23 04:03:18;;;;;;;23.58;11.07;;;6.80;99.90;;;;;;5091353;28;20127;-73
2023/10/23 04:05:43;;;;;;;25.70;10.95;;;6.80;99.90;;;;;;5090754;28;20177;-73
2023/10/23 04:08:09;;;;;;;27.38;10.52;;;6.70;99.90;;;;;;5092399;28;20090;-73
2023/10/23 04:10:34;;;;;;;;;;;6.70;99.90;;;;;;5091619;28;20144;-74
2023/10/23 04:13:00;;;;;;;16.08;9.80;;;6.70;99.90;;;;;;5090279;28;19927;-74
2023/10/23 04:15:26;;;;;;;46.65;10.95;;;6.60;99.90;;;;;;5091564;28;20055;-73
2023/10/23 04:17:52;;;;;;;82.75;12.23;;;6.50;99.90;;;;;;5090642;28;20036;-73
2023/10/23 04:20:18;;;;;;;126.22;13.80;;;6.40;99.90;;;;;;5090198;28;20406;-73
2023/10/23 04:22:43;;;;;;;;;;;6.40;99.90;;;;;;5092849;28;20036;-73
2023/10/23 04:25:09;;;;;;;28.15;9.38;;;6.40;99.90;;;;;;5090036;28;19919;-72
2023/10/23 04:27:35;;;;;;;;;;;6.40;99.90;;;;;;5091444;28;20511;-72
2023/10/23 04:30:01;;;;;;;23.33;9.00;;;6.40;99.90;;;;;;5089585;28;19920;-73
2023/10/23 04:32:27;;;;;;;15.23;8.35;;;6.40;99.90;;;;;;5090374;28;20032;-72
2023/10/23 04:34:53;;;;;;;12.88;8.00;;;6.40;99.90;;;;;;5089962;28;20054;-73
2023/10/23 04:37:19;;;;;;;25.75;9.15;;;6.30;99.90;;;;;;5092092;28;20059;-72
2023/10/23 04:39:44;;;;;;;14.80;8.65;;;6.20;99.90;;;;;;5090008;28;20044;-72
2023/10/23 04:42:10;;;;;;;;;;;6.20;99.90;;;;;;5090208;28;20126;-72
2023/10/23 04:44:36;;;;;;;15.20;8.85;;;6.20;99.90;;;;;;5090948;28;19931;-72
2023/10/23 04:47:02;;;;;;;16.13;10.05;;;6.40;99.90;;;;;;5089719;28;20052;-72
2023/10/23 04:49:28;;;;;;;;;;;6.10;99.90;;;;;;5091185;28;20071;-72
2023/10/23 04:51:53;;;;;;;62.57;10.03;;;6.10;99.90;;;;;;5090547;28;19920;-72
2023/10/23 04:54:19;;;;;;;89.85;12.95;;;6.20;99.90;;;;;;5089511;28;20415;-71
2023/10/23 04:56:45;;;;;;;49.50;11.07;;;6.10;99.90;;;;;;5092107;28;20450;-72
2023/10/23 04:59:11;;;;;;;43.60;10.45;;;6.20;99.90;;;;;;5095149;28;20063;-72
2023/10/23 05:01:36;;;;;;;48.42;9.98;;;7.30;99.90;;;;;;5092750;28;20070;-72
2023/10/23 05:04:02;;;;;;;165.68;13.70;;;6.10;99.90;;;;;;5084901;28;20043;-72
2023/10/23 05:06:28;;;;;;;141.05;12.57;;;6.10;99.90;;;;;;5087680;28;20051;-72
2023/10/23 05:08:54;;;;;;;41.42;8.95;;;6.10;99.90;;;;;;5092007;28;20032;-72
2023/10/23 05:11:19;;;;;;;39.55;9.27;;;6.10;99.90;;;;;;5093905;28;20056;-72
2023/10/23 05:13:48;;;;;;;48.22;9.18;;;6.00;99.90;;;;;;5076696;28;20553;-72
2023/10/23 05:16:13;;;;;;;68.82;9.23;;;6.00;99.90;;;;;;5090704;28;20040;-72
2023/10/23 05:18:39;;;;;;;105.10;10.82;;;5.90;99.90;;;;;;5093860;28;20540;-72
2023/10/23 05:21:10;;;;;;;156.00;13.25;;;5.80;99.90;;;;;;5087266;28;20040;-72
2023/10/23 05:23:39;;;;;;;114.85;11.70;;;5.90;99.90;;;;;;5091418;28;20426;-71
2023/10/23 05:26:06;;;;;;;148.73;11.98;;;5.80;99.90;;;;;;5093375;28;20074;-72
2023/10/23 05:28:32;;;;;;;75.00;9.40;;;5.80;99.90;;;;;;5093510;28;20078;-72
2023/10/23 05:30:58;;;;;;;104.68;10.60;;;5.80;99.90;;;;;;5084878;28;20076;-72
2023/10/23 05:33:23;;;;;;;;;;;5.90;99.90;;;;;;5092493;28;20414;-71
2023/10/23 05:35:49;;;;;;;68.30;9.35;;;5.90;99.90;;;;;;5091923;28;19934;-71
2023/10/23 05:38:14;;;;;;;36.70;7.45;;;5.90;99.90;;;;;;5093433;28;20081;-71
2023/10/23 05:40:40;;;;;;;30.80;7.07;;;5.80;99.90;;;;;;5092911;28;20050;-71
2023/10/23 05:43:06;;;;;;;47.15;8.35;;;5.80;99.90;;;;;;5091773;28;20040;-72
2023/10/23 05:45:31;;;;;;;89.05;10.18;;;5.80;99.90;;;;;;5092879;28;20040;-72
2023/10/23 05:47:57;;;;;;;;;;;5.80;99.90;;;;;;5093226;28;20087;-72
2023/10/23 05:50:22;;;;;;;102.78;10.02;;;5.90;99.90;;;;;;5092852;28;19946;-71
2023/10/23 05:52:48;;;;;;;;;;;5.90;99.90;;;;;;5093989;28;20047;-71
2023/10/23 05:55:14;;;;;;;76.85;10.82;;;6.00;99.90;;;;;;5093885;28;19975;-72
2023/10/23 05:57:39;;;;;;;;;;;6.00;99.90;;;;;;5093395;28;20104;-71
2023/10/23 06:00:08;;;;;;;36.38;9.98;;;6.10;99.90;;;;;;5093165;28;20893;-71
2023/10/23 06:02:34;;;;;;;24.45;10.38;;;6.30;99.90;;;;;;5092863;28;20498;-71
2023/10/23 06:05:00;;;;;;;17.65;9.45;;;6.30;99.90;;;;;;5091124;28;20044;-72
2023/10/23 06:07:25;;;;;;;19.75;9.80;;;6.30;99.90;;;;;;5084122;28;20044;-72
2023/10/23 06:09:51;;;;;;;20.92;10.25;;;6.30;99.90;;;;;;5085450;28;20036;-73
2023/10/23 06:12:17;;;;;;;;;;;6.20;99.90;;;;;;5090640;28;20453;-72
2023/10/23 06:14:43;;;;;;;18.55;10.68;;;6.30;99.90;;;;;;5089350;28;19978;-73
2023/10/23 06:17:08;;;;;;;20.98;10.23;;;6.30;99.90;;;;;;5090202;28;20119;-72
2023/10/23 06:19:36;;;;;;;20.60;10.63;;;6.60;99.90;;;;;;5082461;28;20040;-71
2023/10/23 06:22:02;;;;;;;32.50;10.90;;;7.70;99.90;;;;;;5092417;28;20059;-71
2023/10/23 06:24:28;;;;;;;37.47;10.98;;;6.40;99.90;;;;;;5093005;28;20422;-71
2023/10/23 06:26:53;;;;;;;47.13;10.65;;;7.40;99.90;;;;;;5091692;28;20044;-71
2023/10/23 06:29:19;;;;;;;;;;;6.40;99.90;;;;;;5093163;28;20132;-71
2023/10/23 06:31:45;;;;;;;55.63;10.40;;;6.40;99.90;;;;;;5092849;28;19920;-71
2023/10/23 06:34:10;;;;;;;;;;;6.50;99.90;;;;;;5091917;28;20123;-71
2023/10/23 06:36:40;;;;;;;26.23;9.27;;;6.70;99.90;;;;;;5093896;28;20090;-71
2023/10/23 06:39:08;;;;;;;30.05;10.27;;;6.70;99.90;;;;;;5091280;28;20040;-73
2023/10/23 06:41:34;;;;;;;35.45;9.25;;;6.50;99.90;;;;;;5092281;28;20047;-73
2023/10/23 06:43:59;;;;;;;40.80;9.73;;;6.50;99.90;;;;;;5091951;28;20048;-73
2023/10/23 06:46:25;;;;;;;34.42;8.90;;;6.50;99.90;;;;;;5091601;28;20255;-70
2023/10/23 06:48:50;;;;;;;;;;;6.50;99.90;;;;;;5092208;28;20423;-71
2023/10/23 06:51:16;;;;;;;15.38;8.05;;;6.50;99.90;;;;;;5092668;28;19920;-71
2023/10/23 06:53:45;;;;;;;14.95;8.95;;;6.60;99.90;;;;;;5091522;28;20040;-72
2023/10/23 06:56:10;;;;;;;13.75;9.27;;;6.50;99.90;;;;;;5086892;28;20040;-73
2023/10/23 06:58:36;;;;;;;20.35;10.00;;;6.40;99.90;;;;;;5080581;28;20073;-75
2023/10/23 07:01:09;;;;;;;15.90;10.50;;;6.50;99.90;;;;;;5087709;28;20051;-75
2023/10/23 07:03:36;;;;;;;16.90;10.13;;;6.50;99.90;;;;;;5089799;28;20484;-71
2023/10/23 07:06:08;;;;;;;20.80;11.40;;;6.60;99.90;;;;;;5091017;28;20040;-71
2023/10/23 07:08:34;;;;;;;17.90;10.95;;;6.70;99.90;;;;;;5087309;28;20111;-78
2023/10/23 07:11:00;;;;;;;19.27;11.05;;;6.70;99.90;;;;;;5090729;28;20055;-77
2023/10/23 07:13:26;;;;;;;19.90;11.02;;;6.80;99.90;;;;;;5085505;28;20407;-71
2023/10/23 07:15:51;;;;;;;20.50;12.38;;;6.90;99.90;;;;;;5087352;28;20110;-71
2023/10/23 07:18:21;;;;;;;;;;;6.90;99.90;;;;;;5091567;28;20043;-78
2023/10/23 07:20:59;;;;;;;20.08;11.82;;;7.00;99.90;;;;;;5090100;28;19924;-72
2023/10/23 07:23:25;;;;;;;20.45;11.32;;;7.10;99.90;;;;;;5090101;28;20119;-73
2023/10/23 07:26:11;;;;;;;18.38;10.73;;;7.30;99.90;;;;;;5090625;28;20036;-75
2023/10/23 07:28:38;;;;;;;16.52;10.80;;;7.40;99.90;;;;;;5090216;28;20487;-74
2023/10/23 07:31:05;;;;;;;20.88;11.48;;;7.30;99.90;;;;;;5090426;28;20040;-74
2023/10/23 07:33:31;;;;;;;19.27;11.82;;;7.40;99.90;;;;;;5090950;28;20364;-70
2023/10/23 07:36:23;;;;;;;17.65;11.13;;;7.50;99.90;;;;;;5090685;28;20089;-71
2023/10/23 07:38:49;;;;;;;18.83;11.20;;;7.60;99.90;;;;;;5089038;28;20406;-72
2023/10/23 07:41:15;;;;;;;21.30;11.35;;;7.60;99.90;;;;;;5089988;28;20040;-71
2023/10/23 07:43:42;;;;;;;18.23;11.68;;;7.70;99.90;;;;;;5087607;28;20567;-71
2023/10/23 07:46:10;;;;;;;17.80;12.52;;;7.70;99.90;;;;;;5088826;28;20085;-71
2023/10/23 07:48:36;;;;;;;20.65;12.82;;;7.90;99.90;;;;;;5089962;28;20048;-72
2023/10/23 07:51:04;;;;;;;18.33;12.10;;;7.90;99.90;;;;;;5080560;28;20048;-75
2023/10/23 07:53:35;;;;;;;20.73;11.93;;;8.60;99.90;;;;;;5090868;28;20052;-77
2023/10/23 07:56:01;;;;;;;22.13;13.15;;;8.10;99.90;;;;;;5090570;28;20398;-71
2023/10/23 07:58:26;;;;;;;25.67;16.60;;;8.50;99.90;;;;;;5090085;28;20044;-72
2023/10/23 08:01:07;;;;;;;26.50;16.80;;;9.10;99.90;;;;;;5091123;28;20051;-74
2023/10/23 08:03:34;;;;;;;25.55;17.80;;;11.20;99.90;;;;;;5090317;28;20471;-74
2023/10/23 08:06:04;;;;;;;21.80;14.98;;;12.70;99.90;;;;;;5089871;28;20052;-75
2023/10/23 08:08:38;;;;;;;18.00;11.98;;;13.70;99.90;;;;;;5089409;28;20051;-74
2023/10/23 08:11:05;;;;;;;14.48;10.15;;;14.90;99.90;;;;;;5084403;28;20039;-73
2023/10/23 08:13:32;;;;;;;10.50;8.13;;;16.00;99.90;;;;;;5085706;28;20067;-77
2023/10/23 08:15:57;;;;;;;9.48;7.50;;;17.00;99.90;;;;;;5084084;28;20045;-75
2023/10/23 08:18:23;;;;;;;8.50;6.68;;;17.70;99.90;;;;;;5078655;28;20046;-74
2023/10/23 08:20:48;;;;;;;10.38;6.53;;;18.40;99.90;;;;;;5080257;28;20051;-75
2023/10/23 08:23:14;;;;;;;9.18;6.00;;;19.10;99.90;;;;;;5087327;28;20040;-75
2023/10/23 08:25:41;;;;;;;9.38;5.88;;;19.80;99.90;;;;;;5082022;28;20052;-74
2023/10/23 08:28:08;;;;;;;9.93;5.70;;;20.30;99.90;;;;;;5087086;28;20801;-74
2023/10/23 08:30:34;;;;;;;9.00;5.40;;;20.90;99.90;;;;;;5078606;28;20062;-72
2023/10/23 08:32:59;;;;;;;7.45;5.30;;;21.30;99.90;;;;;;5091231;28;20498;-70
2023/10/23 08:35:28;;;;;;;6.10;5.10;;;21.90;99.90;;;;;;5094196;28;20123;-72
2023/10/23 08:37:54;;;;;;;8.27;5.43;;;22.50;99.90;;;;;;5094812;28;20063;-72
2023/10/23 08:40:21;;;;;;;7.82;4.97;;;22.90;99.90;;;;;;5091393;28;20055;-71
2023/10/23 08:42:47;;;;;;;8.25;4.57;;;23.10;99.90;;;;;;5090802;28;20403;-72
2023/10/23 08:45:15;;;;;;;7.38;4.70;;;23.20;97.80;;;;;;5094894;28;20040;-71
2023/10/23 08:47:41;;;;;;;6.40;4.80;;;23.50;96.60;;;;;;5093920;28;20121;-72
2023/10/23 08:50:07;;;;;;;6.47;4.47;;;24.10;97.60;;;;;;5093763;28;20098;-73
2023/10/23 08:52:46;;;;;;;5.13;3.88;;;24.40;96.50;;;;;;5094069;28;20089;-75
2023/10/23 08:55:16;;;;;;;5.80;4.00;;;24.90;96.10;;;;;;5094406;28;20119;-74
2023/10/23 08:57:50;;;;;;;5.88;3.92;;;25.20;93.40;;;;;;5081925;28;20052;-76
2023/10/23 09:00:16;;;;;;;5.72;4.38;;;25.20;94.10;;;;;;5076782;28;20491;-76
2023/10/23 09:02:41;;;;;;;5.78;4.15;;;25.80;92.20;;;;;;5083335;28;20063;-73
2023/10/23 09:05:07;;;;;;;6.15;4.25;;;26.20;92.80;;;;;;5092532;28;20040;-74
2023/10/23 09:07:33;;;;;;;6.47;4.03;;;26.70;91.70;;;;;;5093044;28;20036;-74
2023/10/23 09:10:06;;;;;;;8.10;4.03;;;26.10;92.70;;;;;;5093345;28;20050;-74
2023/10/23 09:12:34;;;;;;;5.50;4.05;;;26.70;91.30;;;;;;5094469;28;20082;-74
2023/10/23 09:15:16;;;;;;;6.28;4.22;;;26.50;90.80;;;;;;5081850;28;20407;-70
2023/10/23 09:17:43;;;;;;;5.30;3.85;;;26.70;90.70;;;;;;5073836;28;20045;-72
2023/10/23 09:20:24;;;;;;;6.22;3.90;;;26.30;91.60;;;;;;5073527;28;20114;-70
2023/10/23 09:22:54;;;;;;;5.70;4.13;;;26.50;90.50;;;;;;5072930;28;20055;-71
2023/10/23 09:25:21;;;;;;;8.50;4.40;;;26.50;91.40;;;;;;5073723;28;20153;-70
2023/10/23 09:27:47;;;;;;;4.80;3.75;;;26.30;90.10;;;;;;5089161;28;20119;-71
2023/10/23 09:30:15;;;;;;;5.55;3.50;;;26.30;91.40;;;;;;5092139;28;20475;-71
2023/10/23 09:32:41;;;;;;;4.60;3.17;;;26.20;90.30;;;;;;5093989;28;20078;-71
2023/10/23 09:35:10;;;;;;;7.10;3.40;;;26.40;90.80;;;;;;5091506;28;20669;-72
2023/10/23 09:37:36;;;;;;;6.55;3.60;;;26.30;90.00;;;;;;5092508;28;20067;-73
2023/10/23 09:40:08;;;;;;;6.88;3.75;;;26.10;90.70;;;;;;5091009;28;20044;-72
2023/10/23 09:42:34;;;;;;;8.13;3.78;;;26.40;91.50;;;;;;5090431;28;20048;-72
2023/10/23 09:45:01;;;;;;;4.75;3.30;;;26.60;91.60;;;;;;5090885;28;20040;-72
2023/10/23 09:47:29;;;;;;;4.30;3.33;;;26.60;90.70;;;;;;5091539;28;20066;-73
2023/10/23 09:49:55;;;;;;;5.45;3.17;;;26.70;89.60;;;;;;5090401;28;20040;-72
2023/10/23 09:52:27;;;;;;;4.22;2.97;;;27.00;90.00;;;;;;5081260;28;20044;-72
2023/10/23 09:55:01;;;;;;;3.92;2.60;;;26.80;89.10;;;;;;5073132;28;20049;-72
2023/10/23 09:57:57;;;;;;;4.97;3.20;;;26.70;88.70;;;;;;5072386;28;20040;-76
2023/10/23 10:00:26;;;;;;;5.28;3.03;;;26.70;88.90;;;;;;5058601;28;20252;-73
2023/10/23 10:02:57;;;;;;;4.50;3.00;;;26.60;90.00;;;;;;5076533;28;20055;-72
2023/10/23 10:05:33;;;;;;;5.35;3.00;;;25.70;90.10;;;;;;5091899;28;20043;-74
2023/10/23 10:08:01;;;;;;;4.18;2.50;;;26.30;89.90;;;;;;5084620;28;20052;-73
2023/10/23 10:10:28;;;;;;;7.78;3.05;;;26.40;90.40;;;;;;5091806;28;20044;-74
2023/10/23 10:12:55;;;;;;;4.90;2.90;;;26.10;90.30;;;;;;5088788;28;20044;-74
2023/10/23 10:15:22;;;;;;;4.22;2.45;;;26.20;91.30;;;;;;5090106;28;20052;-73
2023/10/23 10:17:49;;;;;;;4.30;2.40;;;26.40;90.80;;;;;;5089670;28;20372;-72
2023/10/23 10:20:21;;;;;;;5.20;2.40;;;26.80;90.00;;;;;;5092092;28;20071;-75
2023/10/23 10:23:08;;;;;;;4.88;2.25;;;26.50;88.90;;;;;;5092245;28;20104;-76
2023/10/23 10:25:38;;;;;;;4.97;2.50;;;27.10;87.00;;;;;;5089759;28;20047;-73
2023/10/23 10:28:05;;;;;;;5.63;2.65;;;26.80;87.40;;;;;;5089687;28;20067;-73
2023/10/23 10:30:47;;;;;;;4.05;2.00;;;26.60;88.80;;;;;;5092148;28;20040;-72
2023/10/23 10:33:19;;;;;;;4.05;2.20;;;27.10;86.80;;;;;;5091902;28;20055;-75
2023/10/23 10:35:57;;;;;;;3.55;2.15;;;27.10;84.90;;;;;;5091694;28;20134;-72
2023/10/23 10:38:23;;;;;;;3.53;2.17;;;26.30;86.30;;;;;;5091286;28;20389;-72
2023/10/23 10:40:59;;;;;;;4.50;2.20;;;26.20;88.20;;;;;;5091838;28;20040;-72
2023/10/23 10:43:25;;;;;;;;;;;26.00;87.00;;;;;;5092272;28;20047;-70
2023/10/23 10:45:51;;;;;;;;;;;26.00;86.30;;;;;;5091987;28;19920;-74
2023/10/23 10:48:17;;;;;;;4.63;2.10;;;25.60;89.10;;;;;;5092190;28;20291;-73
2023/10/23 10:50:42;;;;;;;7.32;1.98;;;25.30;88.30;;;;;;5092372;28;20048;-77
2023/10/23 10:53:12;;;;;;;4.03;2.10;;;25.00;88.20;;;;;;5091264;28;20083;-75
2023/10/23 10:55:38;;;;;;;3.17;2.00;;;25.30;87.30;;;;;;5091596;28;20040;-76
2023/10/23 10:58:04;;;;;;;3.28;1.88;;;24.70;89.70;;;;;;5092314;28;20081;-74
2023/10/23 11:00:31;;;;;;;3.38;1.90;;;24.20;89.20;;;;;;5091548;28;20070;-74
2023/10/23 11:02:57;;;;;;;5.32;1.77;;;24.00;90.20;;;;;;5091767;28;20078;-75
2023/10/23 11:05:23;;;;;;;3.42;1.67;;;23.40;90.00;;;;;;5092643;28;20501;-82
2023/10/23 11:07:50;;;;;;;2.92;1.60;;;23.20;91.00;;;;;;5091185;28;20046;-82
2023/10/23 11:10:15;;;;;;;4.72;2.20;;;22.90;91.00;;;;;;5092310;28;20399;-76
2023/10/23 11:12:41;;;;;;;4.90;1.60;;;22.90;91.00;;;;;;5091936;28;20044;-77
2023/10/23 11:15:07;;;;;;;4.55;1.60;;;22.80;91.20;;;;;;5082214;28;20555;-76
2023/10/23 11:17:33;;;;;;;5.65;1.75;;;22.90;91.00;;;;;;5073252;28;20037;-76
2023/10/23 11:19:59;;;;;;;2.95;1.75;;;22.60;91.00;;;;;;5078439;28;20484;-75
2023/10/23 11:22:25;;;;;;;4.05;1.60;;;22.70;91.60;;;;;;5088345;28;20052;-75
2023/10/23 11:25:00;;;;;;;4.43;1.70;;;22.60;92.90;;;;;;5086017;28;20048;-75
2023/10/23 11:27:26;;;;;;;4.90;1.50;;;22.90;90.80;;;;;;5086940;28;20051;-75
2023/10/23 11:29:52;;;;;;;3.40;1.70;;;22.90;91.30;;;;;;5088072;28;20032;-77
2023/10/23 11:32:17;;;;;;;3.67;1.50;;;22.80;90.40;;;;;;5089822;28;20052;-72
2023/10/23 11:34:44;;;;;;;2.72;1.20;;;22.80;91.60;;;;;;5084885;28;20473;-73
2023/10/23 11:37:11;;;;;;;3.17;1.42;;;22.90;91.50;;;;;;5089857;28;20036;-72
2023/10/23 11:39:39;;;;;;;4.03;1.40;;;22.90;91.60;;;;;;5088096;28;20089;-73
2023/10/23 11:42:05;;;;;;;3.95;1.20;;;22.70;90.50;;;;;;5084452;28;20036;-72
2023/10/23 11:44:35;;;;;;;1.60;0.73;;;22.30;91.20;;;;;;5087565;28;20056;-75
2023/10/23 11:47:07;;;;;;;3.85;1.20;;;22.00;90.90;;;;;;5090948;28;20044;-73
2023/10/23 11:49:33;;;;;;;2.88;1.00;;;21.90;91.30;;;;;;5089863;28;20090;-72
2023/10/23 11:52:05;;;;;;;2.22;0.98;;;21.90;91.50;;;;;;5083196;28;20060;-74
2023/10/23 11:54:30;;;;;;;2.50;1.00;;;22.00;91.30;;;;;;5085284;28;20174;-71
2023/10/23 11:57:00;;;;;;;3.05;1.15;;;22.00;91.70;;;;;;5084716;28;20139;-73
2023/10/23 11:59:26;;;;;;;3.08;1.20;;;22.00;91.40;;;;;;5085411;28;20040;-73
2023/10/23 12:01:54;;;;;;;2.78;1.00;;;22.10;91.60;;;;;;5090494;28;20047;-75
2023/10/23 12:04:23;;;;;;;4.93;1.20;;;22.20;92.70;;;;;;5088192;28;20044;-73
2023/10/23 12:06:48;;;;;;;3.50;1.08;;;21.90;92.40;;;;;;5092983;28;20055;-72
2023/10/23 12:09:14;;;;;;;4.13;1.35;;;21.90;91.60;;;;;;5089124;28;20048;-76
2023/10/23 12:11:40;;;;;;;2.88;1.10;;;21.40;91.90;;;;;;5086469;28;20488;-75
2023/10/23 12:14:06;;;;;;;3.47;1.15;;;21.20;92.00;;;;;;5079475;28;20075;-73
2023/10/23 12:16:32;;;;;;;2.22;0.80;;;20.90;92.10;;;;;;5095084;28;20059;-73
2023/10/23 12:18:58;;;;;;;3.42;1.20;;;20.50;92.40;;;;;;5094968;28;20040;-74
2023/10/23 12:21:25;;;;;;;3.40;1.35;;;20.30;92.40;;;;;;5095176;28;20048;-74
2023/10/23 12:23:51;;;;;;;4.07;1.00;;;19.90;93.40;;;;;;5093978;28;20036;-74
2023/10/23 12:26:19;;;;;;;3.63;1.00;;;19.90;93.30;;;;;;5095194;28;20052;-74
2023/10/23 12:28:45;;;;;;;3.20;1.08;;;19.70;93.80;;;;;;5095343;28;20044;-75
2023/10/23 12:31:11;;;;;;;3.00;1.10;;;19.40;94.20;;;;;;5094141;28;20063;-76
2023/10/23 12:33:36;;;;;;;3.30;1.40;;;19.10;95.20;;;;;;5094490;28;20047;-77
2023/10/23 12:36:04;;;;;;;4.18;1.50;;;19.00;95.40;;;;;;5095066;28;20403;-76
2023/10/23 12:38:30;;;;;;;2.65;1.10;;;18.70;95.80;;;;;;5094528;28;20126;-77
2023/10/23 12:40:58;;;;;;;4.65;1.20;;;18.60;96.10;;;;;;5094536;28;20052;-74
2023/10/23 12:43:23;;;;;;;2.42;0.90;;;18.40;96.80;;;;;;5095676;28;20036;-76
2023/10/23 12:45:49;;;;;;;2.58;1.00;;;18.30;97.20;;;;;;5093834;28;20047;-79
2023/10/23 12:48:17;;;;;;;1.90;0.90;;;18.30;96.30;;;;;;5094657;28;20388;-75
2023/10/23 12:50:44;;;;;;;2.63;0.90;;;18.10;96.40;;;;;;5094649;28;20055;-76
2023/10/23 12:53:10;;;;;;;3.58;1.02;;;17.70;96.70;;;;;;5093246;28;20052;-75